createdAt,value
2022-12-03T00:02:09.988Z,33.50
2022-12-03T00:04:36.354Z,31.42
2022-12-03T00:07:02.683Z,35.83
2022-12-03T00:09:28.911Z,29.65
2022-12-03T00:11:55.137Z,30.77
2022-12-03T00:14:21.377Z,35.22
2022-12-03T00:16:47.611Z,37.78
2022-12-03T00:19:13.897Z,34.95
2022-12-03T00:21:40.174Z,38.40
2022-12-03T00:24:06.701Z,38.97
2022-12-03T00:26:32.956Z,36.92
2022-12-03T00:28:59.191Z,33.05
2022-12-03T00:31:25.785Z,37.78
2022-12-03T00:33:52.270Z,39.58
2022-12-03T00:36:18.737Z,34.25
2022-12-03T00:38:45.057Z,42.78
2022-12-03T00:41:11.951Z,37.83
2022-12-03T00:43:38.414Z,39.28
2022-12-03T00:46:04.812Z,37.03
2022-12-03T00:48:31.098Z,34.53
2022-12-03T00:50:57.348Z,39.25
2022-12-03T00:53:23.573Z,35.00
2022-12-03T00:55:50.648Z,40.63
2022-12-03T00:58:17.509Z,39.50
2022-12-03T01:00:43.925Z,34.78
2022-12-03T01:03:10.203Z,35.78
2022-12-03T01:05:36.526Z,39.97
2022-12-03T01:08:02.908Z,40.30
2022-12-03T01:10:29.277Z,36.35
2022-12-03T01:12:55.604Z,32.15
2022-12-03T01:15:21.905Z,39.45
2022-12-03T01:17:48.173Z,38.65
2022-12-03T01:20:14.455Z,38.50
2022-12-03T01:22:40.687Z,38.42
2022-12-03T01:25:07.473Z,36.20
2022-12-03T01:27:33.755Z,38.72
2022-12-03T01:30:00.038Z,32.50
2022-12-03T01:32:26.430Z,39.42
2022-12-03T01:34:54.178Z,36.42
2022-12-03T01:37:22.042Z,40.42
2022-12-03T01:39:48.408Z,37.85
2022-12-03T01:42:22.231Z,39.58
2022-12-03T01:44:48.869Z,39.30
2022-12-03T01:47:16.639Z,40.13
2022-12-03T01:49:44.361Z,36.53
2022-12-03T01:52:15.014Z,40.22
2022-12-03T01:54:43.009Z,42.42
2022-12-03T01:57:20.282Z,38.60
2022-12-03T01:59:47.069Z,39.17
2022-12-03T02:02:14.814Z,35.85
2022-12-03T02:04:41.220Z,38.25
2022-12-03T02:07:22.398Z,39.92
2022-12-03T02:09:48.733Z,38.08
2022-12-03T02:12:15.930Z,45.75
2022-12-03T02:14:42.154Z,37.55
2022-12-03T02:17:08.530Z,42.90
2022-12-03T02:19:35.552Z,38.22
2022-12-03T02:22:15.436Z,34.13
2022-12-03T02:24:55.628Z,40.33
2022-12-03T02:27:22.447Z,53.92
2022-12-03T02:29:48.689Z,42.03
2022-12-03T02:32:14.988Z,40.53
2022-12-03T02:34:42.782Z,42.25
2022-12-03T02:37:11.462Z,39.28
2022-12-03T02:39:40.016Z,42.60
2022-12-03T02:42:25.396Z,39.10
2022-12-03T02:44:52.311Z,42.08
2022-12-03T02:47:19.188Z,39.03
2022-12-03T02:49:45.494Z,35.13
2022-12-03T02:52:11.902Z,41.95
2022-12-03T02:54:38.229Z,40.38
2022-12-03T02:57:04.605Z,38.70
2022-12-03T02:59:30.861Z,39.25
2022-12-03T03:01:57.441Z,41.13
2022-12-03T03:04:24.792Z,40.45
2022-12-03T03:06:51.409Z,36.53
2022-12-03T03:09:18.237Z,38.85
2022-12-03T03:11:44.509Z,38.88
2022-12-03T03:14:10.777Z,38.60
2022-12-03T03:16:37.159Z,39.10
2022-12-03T03:19:03.414Z,42.15
2022-12-03T03:21:29.712Z,41.78
2022-12-03T03:23:55.999Z,39.03
2022-12-03T03:26:22.293Z,44.20
2022-12-03T03:28:49.976Z,41.33
2022-12-03T03:31:17.697Z,39.47
2022-12-03T03:33:45.391Z,38.85
2022-12-03T03:36:12.445Z,42.10
2022-12-03T03:38:39.049Z,41.85
2022-12-03T03:41:05.850Z,43.60
2022-12-03T03:43:34.729Z,42.95
2022-12-03T03:46:01.583Z,45.47
2022-12-03T03:48:27.935Z,40.50
2022-12-03T03:50:54.263Z,45.92
2022-12-03T03:53:20.838Z,44.33
2022-12-03T03:55:47.316Z,43.58
2022-12-03T03:58:13.631Z,45.88
2022-12-03T04:00:40.019Z,45.42
2022-12-03T04:03:06.293Z,44.00
2022-12-03T04:05:32.825Z,42.90
2022-12-03T04:07:59.257Z,40.38
2022-12-03T04:10:44.314Z,44.25
2022-12-03T04:13:10.605Z,48.05
2022-12-03T04:15:36.914Z,42.33
2022-12-03T04:18:21.588Z,46.70
2022-12-03T04:20:47.907Z,44.53
2022-12-03T04:23:14.201Z,43.88
2022-12-03T04:26:03.187Z,43.55
2022-12-03T04:28:47.740Z,43.08
2022-12-03T04:31:32.489Z,48.33
2022-12-03T04:34:17.293Z,43.03
2022-12-03T04:36:43.611Z,47.65
2022-12-03T04:39:09.923Z,45.25
2022-12-03T04:41:36.232Z,45.00
2022-12-03T04:44:20.898Z,45.10
2022-12-03T04:46:47.170Z,42.22
2022-12-03T04:49:13.428Z,44.28
2022-12-03T04:51:39.738Z,40.78
2022-12-03T04:54:21.072Z,40.45
2022-12-03T04:56:47.400Z,46.50
2022-12-03T04:59:16.546Z,46.22
2022-12-03T05:01:43.229Z,42.22
2022-12-03T05:04:09.641Z,37.30
2022-12-03T05:06:35.936Z,40.55
2022-12-03T05:09:02.281Z,36.78
2022-12-03T05:11:28.561Z,38.63
2022-12-03T05:13:54.838Z,41.95
2022-12-03T05:16:21.170Z,40.95
2022-12-03T05:18:47.570Z,47.63
2022-12-03T05:21:14.032Z,43.38
2022-12-03T05:23:40.269Z,50.25
2022-12-03T05:26:06.607Z,43.97
2022-12-03T05:28:32.851Z,40.55
2022-12-03T05:30:59.207Z,46.90
2022-12-03T05:33:25.634Z,44.67
2022-12-03T05:35:51.921Z,45.13
2022-12-03T05:38:18.263Z,42.05
2022-12-03T05:40:44.599Z,42.78
2022-12-03T05:43:10.887Z,39.97
2022-12-03T05:45:38.371Z,44.08
2022-12-03T05:48:06.170Z,42.20
2022-12-03T05:50:34.013Z,49.78
2022-12-03T05:53:00.320Z,40.70
2022-12-03T05:55:27.239Z,49.40
2022-12-03T05:57:53.574Z,46.25
2022-12-03T06:00:21.481Z,44.72
2022-12-03T06:02:48.153Z,45.80
2022-12-03T06:05:15.362Z,43.60
2022-12-03T06:07:41.876Z,43.60
2022-12-03T06:10:09.754Z,37.05
2022-12-03T06:12:36.037Z,38.15
2022-12-03T06:15:02.407Z,39.38
2022-12-03T06:17:28.677Z,38.20
2022-12-03T06:19:54.942Z,36.28
2022-12-03T06:22:21.243Z,38.35
2022-12-03T06:24:47.580Z,38.65
2022-12-03T06:27:13.912Z,35.85
2022-12-03T06:29:40.258Z,40.20
2022-12-03T06:32:06.570Z,38.92
2022-12-03T06:34:33.122Z,39.13
2022-12-03T06:36:59.337Z,35.22
2022-12-03T06:39:25.587Z,34.58
2022-12-03T06:41:51.821Z,34.67
2022-12-03T06:44:18.045Z,36.53
2022-12-03T06:46:44.368Z,34.35
2022-12-03T06:49:10.700Z,36.05
2022-12-03T06:51:37.075Z,42.15
2022-12-03T06:54:04.065Z,35.90
2022-12-03T06:56:35.877Z,36.80
2022-12-03T06:59:04.279Z,39.15
2022-12-03T07:01:30.662Z,37.90
2022-12-03T07:03:56.986Z,43.67
2022-12-03T07:06:23.280Z,34.20
2022-12-03T07:08:49.533Z,41.00
2022-12-03T07:11:38.551Z,41.45
2022-12-03T07:14:06.911Z,41.08
2022-12-03T07:16:34.217Z,37.45
2022-12-03T07:19:00.651Z,40.10
2022-12-03T07:21:26.875Z,42.47
2022-12-03T07:23:53.145Z,41.25
2022-12-03T07:26:19.458Z,39.13
2022-12-03T07:28:46.635Z,48.90
2022-12-03T07:31:13.154Z,42.75
2022-12-03T07:33:39.481Z,41.72
2022-12-03T07:36:05.893Z,42.88
2022-12-03T07:38:32.137Z,43.22
2022-12-03T07:40:58.339Z,39.35
2022-12-03T07:43:24.619Z,43.60
2022-12-03T07:45:50.934Z,46.80
2022-12-03T07:48:17.230Z,44.97
2022-12-03T07:50:43.556Z,41.78
2022-12-03T07:53:09.779Z,44.13
2022-12-03T07:55:36.043Z,50.45
2022-12-03T07:58:02.289Z,46.40
2022-12-03T08:00:28.584Z,48.53
2022-12-03T08:02:54.911Z,48.10
2022-12-03T08:05:21.177Z,49.78
2022-12-03T08:07:47.497Z,52.33
2022-12-03T08:10:13.905Z,47.38
2022-12-03T08:12:40.393Z,48.75
2022-12-03T08:15:16.842Z,50.95
2022-12-03T08:17:43.607Z,48.33
2022-12-03T08:20:12.909Z,52.38
2022-12-03T08:22:40.478Z,47.25
2022-12-03T08:25:12.870Z,54.83
2022-12-03T08:27:39.110Z,53.03
2022-12-03T08:30:05.835Z,47.40
2022-12-03T08:32:32.114Z,54.03
2022-12-03T08:34:58.423Z,50.22
2022-12-03T08:37:24.680Z,50.75
2022-12-03T08:39:54.329Z,51.22
2022-12-03T08:42:42.735Z,49.85
2022-12-03T08:45:27.959Z,53.67
2022-12-03T08:48:02.480Z,52.47
2022-12-03T08:50:33.386Z,51.10
2022-12-03T08:53:11.198Z,46.80
2022-12-03T08:55:38.257Z,49.28
2022-12-03T08:58:24.302Z,49.45
2022-12-03T09:00:56.790Z,50.40
2022-12-03T09:03:23.144Z,51.17
2022-12-03T09:05:49.354Z,53.50
2022-12-03T09:08:15.717Z,46.72
2022-12-03T09:10:42.049Z,58.80
2022-12-03T09:13:08.373Z,50.13
2022-12-03T09:15:34.691Z,52.17
2022-12-03T09:18:00.974Z,54.85
2022-12-03T09:20:27.190Z,53.13
2022-12-03T09:22:53.479Z,52.13
2022-12-03T09:25:19.712Z,52.60
2022-12-03T09:27:45.979Z,54.90
2022-12-03T09:30:12.355Z,45.88
2022-12-03T09:32:38.641Z,52.00
2022-12-03T09:35:05.322Z,51.80
2022-12-03T09:37:31.722Z,57.65
2022-12-03T09:39:57.999Z,52.30
2022-12-03T09:42:24.945Z,57.88
2022-12-03T09:44:51.501Z,54.33
2022-12-03T09:47:18.474Z,52.58
2022-12-03T09:49:44.809Z,51.83
2022-12-03T09:52:14.258Z,51.47
2022-12-03T09:54:52.249Z,47.53
2022-12-03T09:57:18.727Z,46.72
2022-12-03T09:59:45.221Z,47.75
2022-12-03T10:02:19.551Z,48.10
2022-12-03T10:04:45.834Z,50.95
2022-12-03T10:07:12.086Z,56.85
2022-12-03T10:09:38.361Z,54.28
2022-12-03T10:12:04.786Z,57.20
2022-12-03T10:14:31.164Z,59.50
2022-12-03T10:16:58.179Z,56.70
2022-12-03T10:19:27.416Z,61.03
2022-12-03T10:21:53.863Z,59.88
2022-12-03T10:24:23.308Z,55.72
2022-12-03T10:26:50.786Z,71.57
2022-12-03T10:29:21.347Z,66.80
2022-12-03T10:32:07.866Z,68.43
2022-12-03T10:34:35.510Z,66.55
2022-12-03T10:37:21.461Z,59.92
2022-12-03T10:39:56.013Z,59.08
2022-12-03T10:42:23.421Z,70.55
2022-12-03T10:44:53.730Z,67.90
2022-12-03T10:47:22.555Z,69.47
2022-12-03T10:50:00.980Z,71.32
2022-12-03T10:52:27.281Z,68.60
2022-12-03T10:54:53.902Z,63.25
2022-12-03T10:57:20.463Z,55.17
2022-12-03T10:59:46.716Z,87.03
2022-12-03T11:02:21.102Z,58.72
2022-12-03T11:04:47.414Z,61.47
2022-12-03T11:07:20.932Z,64.72
2022-12-03T11:09:48.206Z,61.28
2022-12-03T11:12:18.778Z,70.20
2022-12-03T11:14:52.069Z,61.78
2022-12-03T11:17:37.374Z,55.50
2022-12-03T11:20:03.827Z,59.83
2022-12-03T11:22:59.352Z,56.10
2022-12-03T11:25:28.599Z,57.88
2022-12-03T11:28:13.006Z,63.63
2022-12-03T11:30:45.336Z,50.15
2022-12-03T11:33:28.591Z,49.13
2022-12-03T11:36:36.513Z,48.15
2022-12-03T11:39:08.056Z,50.70
2022-12-03T11:41:35.008Z,46.65
2022-12-03T11:44:05.663Z,46.20
2022-12-03T11:46:37.911Z,45.20
2022-12-03T11:49:23.032Z,47.80
2022-12-03T11:51:49.457Z,46.10
2022-12-03T11:54:16.650Z,43.78
2022-12-03T11:56:47.464Z,38.72
2022-12-03T11:59:13.806Z,39.22
2022-12-03T12:01:40.752Z,39.80
2022-12-03T12:04:08.113Z,36.75
2022-12-03T12:06:48.714Z,38.00
2022-12-03T12:09:37.901Z,39.45
2022-12-03T12:12:22.809Z,36.00
2022-12-03T12:14:49.097Z,39.53
2022-12-03T12:17:28.676Z,35.58
2022-12-03T12:20:13.642Z,35.80
2022-12-03T12:22:39.990Z,34.63
2022-12-03T12:25:26.240Z,31.40
2022-12-03T12:27:53.822Z,37.38
2022-12-03T12:30:21.568Z,30.98
2022-12-03T12:32:48.916Z,35.60
2022-12-03T12:35:17.111Z,30.92
2022-12-03T12:37:58.158Z,35.72
2022-12-03T12:40:29.492Z,36.78
2022-12-03T12:42:59.561Z,45.10
2022-12-03T12:45:30.075Z,35.65
2022-12-03T12:48:03.082Z,45.72
2022-12-03T12:50:30.526Z,42.35
2022-12-03T12:53:08.431Z,38.00
2022-12-03T12:55:34.791Z,39.35
2022-12-03T12:58:02.655Z,38.10
2022-12-03T13:00:28.982Z,38.03
2022-12-03T13:02:58.356Z,39.88
2022-12-03T13:05:27.598Z,38.20
2022-12-03T13:07:54.459Z,38.25
2022-12-03T13:10:24.877Z,36.78
2022-12-03T13:12:51.166Z,41.30
2022-12-03T13:15:36.379Z,36.70
2022-12-03T13:18:10.565Z,37.72
2022-12-03T13:20:37.301Z,37.00
2022-12-03T13:23:05.684Z,43.10
2022-12-03T13:28:23.474Z,41.25
2022-12-03T13:30:49.757Z,44.40
2022-12-03T13:33:25.938Z,45.10
2022-12-03T13:35:52.977Z,39.45
2022-12-03T13:38:20.278Z,45.35
2022-12-03T13:40:46.656Z,48.63
2022-12-03T13:43:15.330Z,44.00
2022-12-03T13:45:43.832Z,40.85
2022-12-03T13:48:20.050Z,41.13
2022-12-03T13:50:46.401Z,42.58
2022-12-03T13:53:31.194Z,43.88
2022-12-03T13:56:16.439Z,51.08
2022-12-03T13:58:42.653Z,64.30
2022-12-03T14:01:08.950Z,62.58
2022-12-03T14:03:35.310Z,73.72
2022-12-03T14:06:01.578Z,74.55
2022-12-03T14:08:27.818Z,68.18
2022-12-03T14:10:59.907Z,67.50
2022-12-03T14:13:27.038Z,72.15
2022-12-03T14:15:53.314Z,68.50
2022-12-03T14:18:19.601Z,70.20
2022-12-03T14:20:45.939Z,80.50
2022-12-03T14:23:12.278Z,63.38
2022-12-03T14:25:38.507Z,73.45
2022-12-03T14:28:08.487Z,63.45
2022-12-03T14:30:35.211Z,70.70
2022-12-03T14:33:01.563Z,71.07
2022-12-03T14:35:27.862Z,67.72
2022-12-03T14:37:54.072Z,68.72
2022-12-03T14:40:22.002Z,76.22
2022-12-03T14:42:48.537Z,58.88
2022-12-03T14:45:14.912Z,58.03
2022-12-03T14:47:41.160Z,64.07
2022-12-03T14:50:07.952Z,51.53
2022-12-03T14:52:34.530Z,46.95
2022-12-03T14:55:00.746Z,52.33
2022-12-03T14:57:26.970Z,56.63
2022-12-03T14:59:53.419Z,50.80
2022-12-03T15:02:19.822Z,54.92
2022-12-03T15:04:46.129Z,51.30
2022-12-03T15:07:12.544Z,44.97
2022-12-03T15:09:38.779Z,50.95
2022-12-03T15:12:05.279Z,54.38
2022-12-03T15:14:31.573Z,41.35
2022-12-03T15:16:57.925Z,43.35
2022-12-03T15:19:24.206Z,44.90
2022-12-03T15:21:50.493Z,42.13
2022-12-03T15:24:17.046Z,49.88
2022-12-03T15:26:43.269Z,41.92
2022-12-03T15:29:09.570Z,44.67
2022-12-03T15:31:35.934Z,44.83
2022-12-03T15:34:02.309Z,40.00
2022-12-03T15:36:28.663Z,46.00
2022-12-03T15:38:54.951Z,45.10
2022-12-03T15:41:21.585Z,45.03
2022-12-03T15:43:48.462Z,43.60
2022-12-03T15:46:14.843Z,41.78
2022-12-03T15:48:41.115Z,47.20
2022-12-03T15:51:07.401Z,46.17
2022-12-03T15:53:33.736Z,90.85
2022-12-03T15:56:00.031Z,42.03
2022-12-03T15:58:26.330Z,52.42
2022-12-03T16:00:52.587Z,68.63
2022-12-03T16:03:18.886Z,55.33
2022-12-03T16:05:45.178Z,73.97
2022-12-03T16:08:11.549Z,62.60
2022-12-03T16:10:37.805Z,81.93
2022-12-03T16:13:04.078Z,85.72
2022-12-03T16:15:30.482Z,71.32
2022-12-03T16:17:56.789Z,70.47
2022-12-03T16:20:23.081Z,70.57
2022-12-03T16:22:49.380Z,66.88
2022-12-03T16:25:15.641Z,69.22
2022-12-03T16:27:41.866Z,72.05
2022-12-03T16:30:08.520Z,65.35
2022-12-03T16:32:34.844Z,60.13
2022-12-03T16:35:01.210Z,65.13
2022-12-03T16:37:27.440Z,62.70
2022-12-03T16:39:53.927Z,68.25
2022-12-03T16:42:20.347Z,60.28
2022-12-03T16:45:04.671Z,60.10
2022-12-03T16:47:34.142Z,67.03
2022-12-03T16:50:01.522Z,75.77
2022-12-03T16:52:27.873Z,70.88
2022-12-03T16:54:54.230Z,67.43
2022-12-03T16:57:20.480Z,65.10
2022-12-03T16:59:46.715Z,63.25
2022-12-03T17:02:13.467Z,66.43
2022-12-03T17:04:39.978Z,74.53
2022-12-03T17:07:06.238Z,67.53
2022-12-03T17:09:32.534Z,68.13
2022-12-03T17:11:58.838Z,62.88
2022-12-03T17:14:29.860Z,66.82
2022-12-03T17:16:59.255Z,62.15
2022-12-03T17:19:25.499Z,72.63
2022-12-03T17:21:52.998Z,66.80
2022-12-03T17:24:19.319Z,71.25
2022-12-03T17:26:46.247Z,76.88
2022-12-03T17:29:12.517Z,87.65
2022-12-03T17:31:42.303Z,69.03
2022-12-03T17:34:09.103Z,74.38
2022-12-03T17:36:35.338Z,79.95
2022-12-03T17:39:01.619Z,79.45
2022-12-03T17:41:27.868Z,76.75
2022-12-03T17:43:54.154Z,73.68
2022-12-03T17:46:20.463Z,76.68
2022-12-03T17:48:46.770Z,71.13
2022-12-03T17:51:13.074Z,79.53
2022-12-03T17:53:39.374Z,74.93
2022-12-03T17:56:05.762Z,69.40
2022-12-03T17:58:32.118Z,77.80
2022-12-03T18:01:02.526Z,76.70
2022-12-03T18:03:29.525Z,75.00
2022-12-03T18:05:55.825Z,80.18
2022-12-03T18:08:22.154Z,78.95
2022-12-03T18:10:48.473Z,76.28
2022-12-03T18:13:14.700Z,66.20
2022-12-03T18:15:41.000Z,77.18
2022-12-03T18:18:07.354Z,80.68
2022-12-03T18:20:33.655Z,67.65
2022-12-03T18:22:59.878Z,75.35
2022-12-03T18:25:26.995Z,72.30
2022-12-03T18:27:53.296Z,65.63
2022-12-03T18:30:19.671Z,63.15
2022-12-03T18:32:45.906Z,71.63
2022-12-03T18:35:12.271Z,70.38
2022-12-03T18:37:38.853Z,67.63
2022-12-03T18:40:12.722Z,66.90
2022-12-03T18:42:39.544Z,64.30
2022-12-03T18:45:06.814Z,64.03
2022-12-03T18:47:33.133Z,61.63
2022-12-03T18:49:59.517Z,62.83
2022-12-03T18:52:25.952Z,69.80
2022-12-03T18:54:52.656Z,64.97
2022-12-03T18:57:18.891Z,62.65
2022-12-03T18:59:45.135Z,65.45
2022-12-03T19:05:07.687Z,59.78
2022-12-03T19:07:34.141Z,65.97
2022-12-03T19:10:00.499Z,67.63
2022-12-03T19:12:26.710Z,55.15
2022-12-03T19:14:52.988Z,62.67
2022-12-03T19:17:19.330Z,60.40
2022-12-03T19:19:46.357Z,64.50
2022-12-03T19:22:12.617Z,58.25
2022-12-03T19:24:38.833Z,105.60
2022-12-03T19:27:05.062Z,102.47
2022-12-03T19:29:31.284Z,90.88
2022-12-03T19:31:57.656Z,114.07
2022-12-03T19:34:24.006Z,71.63
2022-12-03T19:36:50.304Z,63.92
2022-12-03T19:39:16.526Z,58.17
2022-12-03T19:41:44.523Z,64.85
2022-12-03T19:44:12.567Z,64.50
2022-12-03T19:46:38.878Z,61.53
2022-12-03T19:49:06.139Z,66.13
2022-12-03T19:51:35.354Z,74.88
2022-12-03T19:54:06.117Z,60.95
2022-12-03T19:56:32.341Z,61.33
2022-12-03T19:58:58.653Z,66.30
2022-12-03T20:01:26.616Z,61.30
2022-12-03T20:03:54.278Z,63.05
2022-12-03T20:06:23.032Z,60.40
2022-12-03T20:08:49.960Z,62.75
2022-12-03T20:11:17.598Z,66.30
2022-12-03T20:13:44.181Z,61.05
2022-12-03T20:16:12.577Z,65.60
2022-12-03T20:18:40.397Z,59.65
2022-12-03T20:21:07.098Z,67.03
2022-12-03T20:23:33.658Z,60.45
2022-12-03T20:25:59.906Z,56.15
2022-12-03T20:28:27.697Z,68.05
2022-12-03T20:30:57.853Z,79.40
2022-12-03T20:33:24.135Z,81.00
2022-12-03T20:35:53.923Z,114.72
2022-12-03T20:38:23.942Z,68.57
2022-12-03T20:40:50.209Z,81.72
2022-12-03T20:43:16.604Z,78.32
2022-12-03T20:45:43.231Z,65.93
2022-12-03T20:48:09.910Z,62.90
2022-12-03T20:50:39.048Z,68.35
2022-12-03T20:53:23.837Z,57.90
2022-12-03T20:55:57.397Z,69.50
2022-12-03T20:58:23.743Z,59.15
2022-12-03T21:00:50.411Z,56.53
2022-12-03T21:03:16.812Z,57.60
2022-12-03T21:05:45.848Z,59.67
2022-12-03T21:08:12.300Z,57.63
2022-12-03T21:10:47.358Z,60.00
2022-12-03T21:13:14.291Z,60.03
2022-12-03T21:15:41.040Z,58.50
2022-12-03T21:18:08.798Z,55.80
2022-12-03T21:20:41.021Z,60.40
2022-12-03T21:23:07.516Z,57.72
2022-12-03T21:25:34.750Z,60.55
2022-12-03T21:28:01.613Z,58.10
2022-12-03T21:30:27.994Z,56.55
2022-12-03T21:32:54.275Z,60.30
2022-12-03T21:35:20.568Z,64.85
2022-12-03T21:37:46.896Z,51.70
2022-12-03T21:40:13.197Z,59.92
2022-12-03T21:42:39.485Z,65.53
2022-12-03T21:45:06.109Z,59.55
2022-12-03T21:47:37.238Z,61.97
2022-12-03T21:50:04.472Z,102.32
2022-12-03T21:52:30.693Z,128.60
2022-12-03T21:54:56.993Z,346.83
2022-12-03T21:57:23.246Z,225.00
2022-12-03T21:59:49.498Z,154.13
2022-12-03T22:02:15.917Z,83.13
2022-12-03T22:04:42.391Z,69.82
2022-12-03T22:07:08.637Z,59.80
2022-12-03T22:09:34.891Z,65.63
2022-12-03T22:12:01.209Z,65.43
2022-12-03T22:14:28.002Z,62.83
2022-12-03T22:16:54.294Z,61.22
2022-12-03T22:19:24.123Z,65.95
2022-12-03T22:21:50.406Z,61.27
2022-12-03T22:24:18.242Z,71.85
2022-12-03T22:26:44.613Z,63.65
2022-12-03T22:29:11.129Z,71.80
2022-12-03T22:31:37.735Z,64.90
2022-12-03T22:34:04.523Z,61.88
2022-12-03T22:36:30.847Z,62.33
2022-12-03T22:38:57.058Z,64.68
2022-12-03T22:41:23.389Z,71.30
2022-12-03T22:43:49.759Z,68.88
2022-12-03T22:46:16.256Z,69.30
2022-12-03T22:48:43.386Z,64.47
2022-12-03T22:51:11.685Z,62.78
2022-12-03T22:53:38.003Z,65.57
2022-12-03T22:56:04.394Z,64.63
2022-12-03T22:58:31.647Z,71.20
2022-12-03T23:01:02.641Z,72.30
2022-12-03T23:03:29.612Z,65.30
2022-12-03T23:05:55.956Z,68.28
2022-12-03T23:08:22.362Z,70.57
2022-12-03T23:10:50.818Z,72.65
2022-12-03T23:13:17.541Z,76.63
2022-12-03T23:15:45.513Z,72.78
2022-12-03T23:18:11.827Z,77.80
2022-12-03T23:20:41.651Z,74.93
2022-12-03T23:23:07.959Z,71.27
2022-12-03T23:25:34.250Z,72.05
2022-12-03T23:28:00.484Z,67.45
2022-12-03T23:30:26.761Z,69.57
2022-12-03T23:32:53.029Z,71.03
2022-12-03T23:35:19.302Z,72.55
2022-12-03T23:37:45.516Z,81.53
2022-12-03T23:40:12.048Z,79.28
2022-12-03T23:42:38.292Z,71.20
2022-12-03T23:45:04.758Z,77.22
2022-12-03T23:47:31.063Z,74.53
2022-12-03T23:49:57.509Z,84.30
2022-12-03T23:52:24.382Z,83.45
2022-12-03T23:54:50.594Z,71.53
2022-12-03T23:57:18.189Z,72.70
2022-12-03T23:59:44.490Z,80.57
